Time;durP1;ratioP1;P1;durP2;ratioP2;P2;SDS_P1;SDS_P2;PMS_P1;PMS_P2;Temp;Humidity;BMP_temperature;BMP_pressure;BME280_temperature;BME280_humidity;BME280_pressure;Samples;Min_cycle;Max_cycle;Signal;HPM_P1;HPM_P2
2022/11/16 00:00:30;;;;;;;7.5;4.4;;;;;;;9.21;77.35547;925.42;;;;
2022/11/16 00:02:57;;;;;;;7.9;5.4;;;;;;;9.25;76.91016;925.2823;;;;
2022/11/16 00:05:25;;;;;;;3.9;3;;;;;;;9.27;76.91113;925.3601;;;;
2022/11/16 00:07:57;;;;;;;4.4;2.8;;;;;;;9.25;76.77148;925.253;;;;
2022/11/16 00:10:31;;;;;;;5.7;3.3;;;;;;;9.21;77.11621;925.2847;;;;
2022/11/16 00:13:15;;;;;;;4.6;3.3;;;;;;;9.2;77.44531;925.2181;;;;
2022/11/16 00:15:53;;;;;;;4.6;3.1;;;;;;;9.06;78.17188;925.18;;;;
2022/11/16 00:18:20;;;;;;;4.5;2.8;;;;;;;8.9;78.54004;925.1553;;;;
2022/11/16 00:20:58;;;;;;;4.8;3.2;;;;;;;8.99;77.96484;925.1325;;;;
2022/11/16 00:23:33;;;;;;;5.2;2.9;;;;;;;9.05;77.94238;925.0896;;;;
2022/11/16 00:26:00;;;;;;;3.2;2.3;;;;;;;9.1;77.51855;925.0591;;;;
2022/11/16 00:28:25;;;;;;;3.2;2.5;;;;;;;9.2;76.83008;924.9949;;;;
2022/11/16 00:30:50;;;;;;;3.9;2.4;;;;;;;9.22;77.14258;924.9911;;;;
2022/11/16 00:33:15;;;;;;;3.6;2.4;;;;;;;9.4;76.76465;925.008;;;;
2022/11/16 00:35:40;;;;;;;2.8;2.4;;;;;;;9.35;76.6416;924.9305;;;;
2022/11/16 00:38:05;;;;;;;4.2;2.2;;;;;;;9.24;76.64355;924.8957;;;;
2022/11/16 00:40:30;;;;;;;3.5;2.1;;;;;;;9.32;75.65625;924.9038;;;;
2022/11/16 00:42:56;;;;;;;2;1.8;;;;;;;9.39;75.19043;924.8683;;;;
2022/11/16 00:45:21;;;;;;;3.8;2.7;;;;;;;9.16;76.99414;924.8221;;;;
2022/11/16 00:47:47;;;;;;;3.6;2.7;;;;;;;9.26;76.93262;924.82;;;;
2022/11/16 00:50:12;;;;;;;3.3;2.3;;;;;;;9.32;77.05762;924.7917;;;;
2022/11/16 00:52:42;;;;;;;4.7;2.6;;;;;;;9.21;76.78809;924.8109;;;;
2022/11/16 00:55:07;;;;;;;3;2.2;;;;;;;9.24;76.91797;924.8297;;;;
2022/11/16 00:57:35;;;;;;;2.3;2;;;;;;;9.18;76.57715;924.8537;;;;
2022/11/16 00:59:58;;;;;;;3.2;2.2;;;;;;;9.34;74.41895;924.7709;;;;
2022/11/16 01:02:28;;;;;;;1.9;1.7;;;;;;;9.52;73.24121;924.7238;;;;
2022/11/16 01:04:52;;;;;;;2;1.8;;;;;;;9.6;73.58691;924.7953;;;;
2022/11/16 01:07:18;;;;;;;2.8;1.9;;;;;;;9.65;74.20996;924.7944;;;;
2022/11/16 01:09:44;;;;;;;2.4;2.2;;;;;;;9.54;74.38574;924.8094;;;;
2022/11/16 01:12:12;;;;;;;5.4;2.4;;;;;;;9.34;75.5918;924.883;;;;
2022/11/16 01:14:34;;;;;;;5.1;3;;;;;;;9.33;75.38574;924.8345;;;;
2022/11/16 01:17:00;;;;;;;4;2.7;;;;;;;9.4;75.21484;924.8094;;;;
2022/11/16 01:19:25;;;;;;;3.7;2.2;;;;;;;9.39;75.00977;924.8119;;;;
2022/11/16 01:21:51;;;;;;;5.7;2.9;;;;;;;9.41;75.29785;924.8434;;;;
2022/11/16 01:24:16;;;;;;;3.2;2.6;;;;;;;9.5;74.74219;924.7207;;;;
2022/11/16 01:26:43;;;;;;;3.9;2.4;;;;;;;9.53;74.56641;924.7498;;;;
2022/11/16 01:29:08;;;;;;;2.9;2.4;;;;;;;9.47;75.58008;924.6614;;;;
2022/11/16 01:31:35;;;;;;;3.8;2.6;;;;;;;9.36;75.82324;924.6469;;;;
2022/11/16 01:34:00;;;;;;;4.7;2.5;;;;;;;9.43;75.33496;924.6323;;;;
2022/11/16 01:36:28;;;;;;;3.9;2.2;;;;;;;9.49;75.23047;924.6103;;;;
2022/11/16 01:38:53;;;;;;;2.5;2.2;;;;;;;9.56;73.41016;924.5215;;;;
2022/11/16 01:41:21;;;;;;;3.2;1.8;;;;;;;9.72;71.95508;924.4797;;;;
2022/11/16 01:43:47;;;;;;;2.9;2;;;;;;;9.81;71.77637;924.3973;;;;
2022/11/16 01:46:13;;;;;;;3.4;2.3;;;;;;;9.76;72.37305;924.3808;;;;
2022/11/16 01:48:38;;;;;;;3.5;2.3;;;;;;;9.86;72.42383;924.3538;;;;
2022/11/16 01:51:03;;;;;;;4.1;2.6;;;;;;;9.96;72.38281;924.3773;;;;
2022/11/16 01:53:29;;;;;;;5.8;3.3;;;;;;;10.03;72.13184;924.4517;;;;
2022/11/16 01:55:54;;;;;;;5.5;3.2;;;;;;;10.07;71.7627;924.4543;;;;
2022/11/16 01:58:19;;;;;;;4.6;2.3;;;;;;;10.11;71.50488;924.485;;;;
2022/11/16 02:00:47;;;;;;;5.5;2.5;;;;;;;10.05;72.15723;924.4182;;;;
2022/11/16 02:03:11;;;;;;;3.1;2;;;;;;;9.98;71.99902;924.3835;;;;
2022/11/16 02:05:37;;;;;;;2.6;1.8;;;;;;;9.96;72.21094;924.4235;;;;
2022/11/16 02:10:30;;;;;;;1.4;1.3;;;;;;;10.15;69.30078;924.5115;;;;
2022/11/16 02:12:55;;;;;;;2.7;1.5;;;;;;;10.31;67.60254;924.4077;;;;
2022/11/16 02:15:21;;;;;;;1.6;1.4;;;;;;;10.37;69.2666;924.4164;;;;
2022/11/16 02:17:46;;;;;;;1.8;1.4;;;;;;;10.33;69.95703;924.3986;;;;
2022/11/16 02:20:16;;;;;;;2;1.7;;;;;;;10.37;70.5;924.3392;;;;
2022/11/16 02:22:42;;;;;;;2.2;1.5;;;;;;;10.44;70.2832;924.3625;;;;
2022/11/16 02:25:07;;;;;;;3;1.3;;;;;;;10.41;68.38281;924.351;;;;
2022/11/16 02:27:32;;;;;;;2.2;1.2;;;;;;;10.56;69.17188;924.3682;;;;
2022/11/16 02:29:58;;;;;;;3.3;1.2;;;;;;;10.64;70.24512;924.3149;;;;
2022/11/16 02:32:23;;;;;;;1.5;1.4;;;;;;;10.66;70.38672;924.3329;;;;
2022/11/16 02:34:48;;;;;;;3.1;1.3;;;;;;;10.72;71.41211;924.3544;;;;
2022/11/16 02:37:14;;;;;;;2.3;1.2;;;;;;;10.69;71.96777;924.2775;;;;
2022/11/16 02:39:39;;;;;;;1.7;1.3;;;;;;;10.67;73.75781;924.2205;;;;
2022/11/16 02:42:04;;;;;;;2.4;1.6;;;;;;;10.61;73.94238;924.2189;;;;
2022/11/16 02:44:29;;;;;;;2.9;1.4;;;;;;;10.61;75.11719;924.1964;;;;
2022/11/16 02:46:58;;;;;;;2.4;1.6;;;;;;;10.54;76.55664;924.2124;;;;
2022/11/16 02:49:23;;;;;;;2.8;1.8;;;;;;;10.48;77.10449;924.2785;;;;
2022/11/16 02:51:48;;;;;;;1.5;1.4;;;;;;;10.42;77.84863;924.2522;;;;
2022/11/16 02:54:17;;;;;;;2.2;1.8;;;;;;;10.35;78.83984;924.287;;;;
2022/11/16 02:56:43;;;;;;;2;1.5;;;;;;;10.34;79.53223;924.3078;;;;
2022/11/16 02:59:13;;;;;;;2;1.5;;;;;;;10.34;79.73926;924.3484;;;;
2022/11/16 03:01:39;;;;;;;2.6;1.6;;;;;;;10.36;80.0625;924.337;;;;
2022/11/16 03:04:04;;;;;;;2.5;1.7;;;;;;;10.33;80.39941;924.432;;;;
2022/11/16 03:06:29;;;;;;;1.6;1.4;;;;;;;10.3;80.04102;924.2813;;;;
2022/11/16 03:08:58;;;;;;;2.5;1.7;;;;;;;10.28;80.46973;924.3491;;;;
2022/11/16 03:13:48;;;;;;;1.9;1.5;;;;;;;10.37;80.21289;924.4141;;;;
2022/11/16 03:16:15;;;;;;;2.8;1.6;;;;;;;10.39;79.91895;924.4003;;;;
2022/11/16 03:18:40;;;;;;;1.6;1.4;;;;;;;10.43;80.24707;924.4065;;;;
2022/11/16 03:21:05;;;;;;;2;1.4;;;;;;;10.42;81.01953;924.4392;;;;
2022/11/16 03:23:30;;;;;;;1.8;1.4;;;;;;;10.45;81.19824;924.3759;;;;
2022/11/16 03:26:00;;;;;;;1.8;1.6;;;;;;;10.37;81.89063;924.4641;;;;
2022/11/16 03:28:26;;;;;;;2.4;1.6;;;;;;;10.34;82.87598;924.4956;;;;
2022/11/16 03:30:50;;;;;;;1.4;1.3;;;;;;;10.13;83.77148;924.5126;;;;
2022/11/16 03:33:15;;;;;;;2.3;1.5;;;;;;;;;;;;;
2022/11/16 03:35:40;;;;;;;3.6;1.7;;;;;;;;;;;;;
2022/11/16 03:38:05;;;;;;;2.5;1.6;;;;;;;;;;;;;
2022/11/16 03:40:31;;;;;;;2.2;2;;;;;;;;;;;;;
2022/11/16 03:42:56;;;;;;;2.7;2;;;;;;;;;;;;;
2022/11/16 03:45:23;;;;;;;3.5;2.3;;;;;;;;;;;;;
2022/11/16 03:47:48;;;;;;;3;2.3;;;;;;;;;;;;;
2022/11/16 03:50:13;;;;;;;5.1;2.5;;;;;;;;;;;;;
2022/11/16 03:52:39;;;;;;;4.1;2.4;;;;;;;;;;;;;
2022/11/16 03:55:05;;;;;;;3.9;2.4;;;;;;;;;;;;;
2022/11/16 03:57:30;;;;;;;2.5;1.8;;;;;;;;;;;;;
2022/11/16 03:59:55;;;;;;;2.3;1.7;;;;;;;;;;;;;
2022/11/16 04:02:35;;;;;;;1.7;1.6;;;;;;;9.97;87.96094;924.6881;;;;
2022/11/16 04:24:34;;;;;;;1.7;1.5;;;;;;;10.05;89.7207;925.2411;;;;
2022/11/16 04:29:24;;;;;;;1.7;1.6;;;;;;;10.01;90.41992;925.2502;;;;
2022/11/16 04:39:11;;;;;;;2.3;1.5;;;;;;;10.09;90.87988;925.3775;;;;
2022/11/16 04:44:05;;;;;;;2.4;1.8;;;;;;;10.14;89.94629;925.4915;;;;
2022/11/16 04:48:58;;;;;;;2;1.8;;;;;;;10.2;89.2168;925.5435;;;;
2022/11/16 04:51:25;;;;;;;3.4;1.9;;;;;;;10.23;89.14258;925.4825;;;;
2022/11/16 04:53:50;;;;;;;3.9;2.1;;;;;;;10.27;89.25391;925.572;;;;
2022/11/16 04:56:17;;;;;;;3.5;1.9;;;;;;;10.3;88.95117;925.6218;;;;
2022/11/16 04:58:42;;;;;;;1.9;1.7;;;;;;;10.32;89.18359;925.671;;;;
2022/11/16 05:01:09;;;;;;;2.3;1.7;;;;;;;10.33;89.01563;925.7193;;;;
2022/11/16 05:03:34;;;;;;;2.2;1.9;;;;;;;10.28;89.73535;925.754;;;;
2022/11/16 05:05:59;;;;;;;3.4;2.1;;;;;;;10.26;90.50781;925.798;;;;
2022/11/16 05:08:25;;;;;;;2.2;1.7;;;;;;;10.24;90.52637;925.8491;;;;
2022/11/16 05:10:51;;;;;;;2.5;1.9;;;;;;;10.28;90.55664;925.8233;;;;
2022/11/16 05:13:16;;;;;;;3.3;2.2;;;;;;;10.25;91.25684;925.9214;;;;
2022/11/16 05:15:50;;;;;;;5.3;2.2;;;;;;;10.13;91.97363;925.9242;;;;
2022/11/16 05:18:18;;;;;;;3.1;2.3;;;;;;;10.1;91.97852;925.8744;;;;
2022/11/16 05:21:01;;;;;;;3.1;2.1;;;;;;;10.12;91.69727;926.0533;;;;
2022/11/16 05:24:32;;;;;;;4.3;2.3;;;;;;;10.15;91.80762;926.0076;;;;
2022/11/16 05:25:35;;;;;;;3.4;2.2;;;;;;;10.16;92.1748;926.0313;;;;
2022/11/16 05:28:02;;;;;;;2.6;2.3;;;;;;;10.15;92.03613;926.0211;;;;
2022/11/16 05:30:28;;;;;;;2.7;2.1;;;;;;;10.17;91.44629;926.0773;;;;
2022/11/16 05:32:56;;;;;;;2.1;1.9;;;;;;;10.17;91.28711;926.0853;;;;
2022/11/16 05:35:21;;;;;;;3;2;;;;;;;10.17;90.93359;926.0789;;;;
2022/11/16 05:37:47;;;;;;;4.5;2.3;;;;;;;10.15;90.65625;926.0346;;;;
2022/11/16 05:40:12;;;;;;;3.1;1.8;;;;;;;10.1;90.61035;926.1266;;;;
2022/11/16 05:42:40;;;;;;;3.4;2.2;;;;;;;10.05;90.64648;926.1078;;;;
2022/11/16 05:45:05;;;;;;;3.5;2;;;;;;;10.09;90.54004;926.1752;;;;
2022/11/16 05:47:34;;;;;;;3.3;1.9;;;;;;;10.05;90.61035;926.1525;;;;
2022/11/16 05:49:58;;;;;;;3.1;2.3;;;;;;;10.01;90.87793;926.14;;;;
2022/11/16 05:52:24;;;;;;;3.7;2.4;;;;;;;10.07;90.86719;926.1786;;;;
2022/11/16 05:54:49;;;;;;;3.3;2.3;;;;;;;10.07;90.68457;926.1714;;;;
2022/11/16 05:57:17;;;;;;;3.4;2.5;;;;;;;10.08;90.94629;926.1379;;;;
2022/11/16 05:59:42;;;;;;;2.8;2.1;;;;;;;10;91.25098;926.0858;;;;
2022/11/16 06:02:08;;;;;;;3.1;2.4;;;;;;;9.89;91.91211;926.0302;;;;
2022/11/16 06:04:33;;;;;;;3.2;2.3;;;;;;;9.86;92.33789;926.0281;;;;
2022/11/16 06:07:00;;;;;;;4;2.6;;;;;;;9.87;92.27246;926.0391;;;;
2022/11/16 06:09:25;;;;;;;3.3;2.4;;;;;;;9.83;92.62793;926.0291;;;;
2022/11/16 06:11:51;;;;;;;3.2;2.7;;;;;;;9.7;93.84082;926.0648;;;;
2022/11/16 06:14:16;;;;;;;2.8;2.4;;;;;;;9.69;94.06934;926.0513;;;;
2022/11/16 06:16:41;;;;;;;4.8;2.5;;;;;;;9.74;94.06738;926.0692;;;;
2022/11/16 06:19:09;;;;;;;5.6;3.4;;;;;;;9.7;94.28711;926.0513;;;;
2022/11/16 06:21:34;;;;;;;4.1;3.3;;;;;;;9.7;94.46973;926.0552;;;;
2022/11/16 06:24:04;;;;;;;3.3;3;;;;;;;9.65;94.44629;926.0762;;;;
2022/11/16 06:26:26;;;;;;;4.9;3.2;;;;;;;9.68;94.56836;926.037;;;;
2022/11/16 06:28:54;;;;;;;6.2;3.7;;;;;;;9.76;94.4248;926.0278;;;;
2022/11/16 06:31:18;;;;;;;5.5;3.8;;;;;;;9.79;94.33008;926.0815;;;;
2022/11/16 06:33:43;;;;;;;5.4;3.9;;;;;;;9.78;94.25977;926.0084;;;;
2022/11/16 06:36:08;;;;;;;4.6;3.6;;;;;;;9.81;94.31152;925.9797;;;;
2022/11/16 06:38:34;;;;;;;4.8;3.6;;;;;;;9.87;94.24512;925.927;;;;
2022/11/16 06:41:00;;;;;;;4.4;3.5;;;;;;;9.89;94.04395;925.9578;;;;
2022/11/16 06:43:27;;;;;;;3.7;3;;;;;;;9.94;93.78223;925.998;;;;
2022/11/16 06:45:53;;;;;;;17.6;13.2;;;;;;;9.84;93.81738;925.9622;;;;
2022/11/16 06:48:23;;;;;;;13.8;9.9;;;;;;;9.87;93.61621;925.9072;;;;
2022/11/16 06:50:50;;;;;;;14.7;9.4;;;;;;;9.84;94.12305;925.9122;;;;
2022/11/16 06:53:16;;;;;;;8.6;5.9;;;;;;;9.72;94.81543;925.9255;;;;
2022/11/16 06:55:46;;;;;;;13.8;10.4;;;;;;;9.69;95.41406;925.9226;;;;
2022/11/16 06:58:11;;;;;;;14.2;10.1;;;;;;;9.63;95.94629;925.9127;;;;
2022/11/16 07:00:41;;;;;;;11.2;8.9;;;;;;;9.5;96.74805;925.93;;;;
2022/11/16 07:04:18;;;;;;;8.9;7.1;;;;;;;9.43;96.99609;925.9359;;;;
2022/11/16 07:06:48;;;;;;;8.9;7;;;;;;;9.64;96.66602;925.8864;;;;
2022/11/16 07:09:17;;;;;;;6.8;6.1;;;;;;;9.65;96.22363;925.9109;;;;
2022/11/16 07:11:42;;;;;;;5.5;4.7;;;;;;;9.51;96.74023;925.8981;;;;
2022/11/16 07:14:07;;;;;;;5.8;4.8;;;;;;;9.47;97.62793;925.884;;;;
2022/11/16 07:16:37;;;;;;;6;4.7;;;;;;;9.41;97.95996;925.9052;;;;
2022/11/16 07:19:06;;;;;;;6.3;4.8;;;;;;;9.35;99.19531;925.8583;;;;
2022/11/16 07:21:31;;;;;;;5.3;4;;;;;;;9.29;99.67285;925.7896;;;;
2022/11/16 07:23:56;;;;;;;5.1;3.5;;;;;;;9.29;99.72949;925.8467;;;;
2022/11/16 07:26:21;;;;;;;5;3.7;;;;;;;9.31;99.91797;925.9246;;;;
2022/11/16 07:28:49;;;;;;;4.6;3.3;;;;;;;9.35;99.82422;925.8575;;;;
2022/11/16 07:31:15;;;;;;;4.7;3.5;;;;;;;9.35;100;925.9188;;;;
2022/11/16 07:33:41;;;;;;;4.9;3.3;;;;;;;9.42;99.8291;925.9567;;;;
2022/11/16 07:36:06;;;;;;;4.5;3;;;;;;;9.45;99.91504;925.8786;;;;
2022/11/16 07:38:34;;;;;;;5.5;4.1;;;;;;;9.58;99.18359;925.9183;;;;
2022/11/16 07:40:59;;;;;;;6.5;4.8;;;;;;;9.66;98.86035;925.9236;;;;
2022/11/16 07:43:28;;;;;;;4.6;3.6;;;;;;;9.55;97.89941;925.8898;;;;
2022/11/16 07:45:53;;;;;;;7.1;4;;;;;;;9.51;98.46973;925.9125;;;;
2022/11/16 07:48:20;;;;;;;5;4.2;;;;;;;9.64;98.05664;925.9356;;;;
2022/11/16 07:50:45;;;;;;;5.7;3.9;;;;;;;9.67;97.44727;925.9497;;;;
2022/11/16 07:53:14;;;;;;;6.3;3.9;;;;;;;9.61;97.73145;925.9351;;;;
2022/11/16 07:55:39;;;;;;;4.3;3.6;;;;;;;9.54;98.23926;925.9447;;;;
2022/11/16 07:58:04;;;;;;;6.4;4.4;;;;;;;9.34;99.22754;925.9728;;;;
2022/11/16 08:00:34;;;;;;;6.1;4.5;;;;;;;9.44;99.48047;926.0297;;;;
2022/11/16 08:02:59;;;;;;;7.2;4.6;;;;;;;9.56;99.33691;926.017;;;;
2022/11/16 08:05:28;;;;;;;7.4;5.5;;;;;;;9.58;98.41797;926.0215;;;;
2022/11/16 08:07:53;;;;;;;7.2;5.2;;;;;;;9.63;98.35059;926.0923;;;;
2022/11/16 08:10:28;;;;;;;7.2;5.3;;;;;;;9.67;98.60938;926.061;;;;
2022/11/16 08:12:53;;;;;;;5.8;4;;;;;;;9.65;98.33008;926.0985;;;;
2022/11/16 08:15:22;;;;;;;3.6;3.1;;;;;;;9.64;98.26172;926.1208;;;;
2022/11/16 08:17:47;;;;;;;4.2;2.8;;;;;;;9.69;98.21484;926.0012;;;;
2022/11/16 08:20:13;;;;;;;3;2.4;;;;;;;9.54;98.0791;926.0178;;;;
2022/11/16 08:22:41;;;;;;;3.2;2.4;;;;;;;9.58;99.05566;926.055;;;;
2022/11/16 08:25:13;;;;;;;4;2.6;;;;;;;9.8;97.66992;926.0847;;;;
2022/11/16 08:27:38;;;;;;;3.7;3.3;;;;;;;10.02;97.41504;926.1201;;;;
2022/11/16 08:30:08;;;;;;;3.8;3.2;;;;;;;10.25;96.57617;926.1242;;;;
2022/11/16 08:32:30;;;;;;;3.7;2.6;;;;;;;10.36;94.91992;926.139;;;;
2022/11/16 08:34:57;;;;;;;4.1;2.6;;;;;;;10.31;94.53418;926.1261;;;;
2022/11/16 08:37:22;;;;;;;4;3.2;;;;;;;10.34;95.3291;926.1672;;;;
2022/11/16 08:39:47;;;;;;;5.3;3;;;;;;;10.34;94.88184;926.1767;;;;
2022/11/16 08:42:15;;;;;;;4.7;2.7;;;;;;;10.37;94.58203;926.1453;;;;
2022/11/16 08:44:40;;;;;;;3.8;3;;;;;;;10.37;94.50195;926.178;;;;
2022/11/16 08:47:06;;;;;;;4.4;2.9;;;;;;;10.36;94.47754;926.1964;;;;
2022/11/16 08:49:31;;;;;;;2.6;2.4;;;;;;;10.26;94.50098;926.2498;;;;
2022/11/16 08:51:59;;;;;;;5.3;3.1;;;;;;;10.27;94.54883;926.1344;;;;
2022/11/16 08:54:24;;;;;;;4.1;3.2;;;;;;;10.26;94.38672;926.1392;;;;
2022/11/16 08:56:52;;;;;;;4.3;3.5;;;;;;;10.37;94.58203;926.2003;;;;
2022/11/16 08:59:18;;;;;;;5.1;3.3;;;;;;;10.43;94.32129;926.2374;;;;
2022/11/16 09:01:43;;;;;;;5.7;3.5;;;;;;;10.52;94.21387;926.2644;;;;
2022/11/16 09:04:08;;;;;;;4.7;3.8;;;;;;;10.56;93.6416;926.2147;;;;
2022/11/16 09:06:35;;;;;;;8.1;4.8;;;;;;;10.57;93.9043;926.3005;;;;
2022/11/16 09:09:00;;;;;;;9.9;6.3;;;;;;;10.66;93.94824;926.3484;;;;
2022/11/16 09:11:27;;;;;;;5.8;3.9;;;;;;;10.66;93.18359;926.3142;;;;
2022/11/16 09:13:52;;;;;;;4.8;4;;;;;;;10.68;93.70117;926.3554;;;;
2022/11/16 09:16:19;;;;;;;6.4;4.4;;;;;;;10.77;93.64063;926.313;;;;
2022/11/16 09:18:46;;;;;;;5.6;4.2;;;;;;;10.9;93.29102;926.3159;;;;
2022/11/16 09:21:15;;;;;;;5.9;4.2;;;;;;;11.01;92.81348;926.2853;;;;
2022/11/16 09:23:46;;;;;;;8.4;4.8;;;;;;;11.15;92.60254;926.4119;;;;
2022/11/16 09:26:12;;;;;;;8.4;3.9;;;;;;;11.22;92.11426;926.4249;;;;
2022/11/16 09:28:40;;;;;;;3.4;3.1;;;;;;;11.17;91.61133;926.4101;;;;
2022/11/16 09:31:05;;;;;;;5;3.6;;;;;;;11.21;91.30078;926.4583;;;;
2022/11/16 09:33:31;;;;;;;4.6;3.5;;;;;;;11.32;91.18652;926.4587;;;;
2022/11/16 09:35:57;;;;;;;5.1;2.9;;;;;;;11.3;90.33594;926.4917;;;;
2022/11/16 09:38:24;;;;;;;5.3;2.9;;;;;;;11.37;90.77441;926.5171;;;;
2022/11/16 09:40:48;;;;;;;5.1;2.7;;;;;;;11.41;90.94434;926.5248;;;;
2022/11/16 09:43:14;;;;;;;3.5;3;;;;;;;11.47;90.2002;926.4922;;;;
2022/11/16 09:45:41;;;;;;;3.6;3;;;;;;;11.54;90.35254;926.5231;;;;
2022/11/16 09:48:06;;;;;;;5;3.1;;;;;;;11.4;90.6084;926.5151;;;;
2022/11/16 09:50:33;;;;;;;3.4;2.8;;;;;;;11.52;90.60059;926.5002;;;;
2022/11/16 09:52:58;;;;;;;4.4;2.9;;;;;;;11.66;89.88281;926.4988;;;;
2022/11/16 09:55:26;;;;;;;4.5;3.3;;;;;;;11.73;89.52148;926.449;;;;
2022/11/16 09:57:51;;;;;;;3.9;3.3;;;;;;;11.76;89.57324;926.4501;;;;
2022/11/16 10:00:22;;;;;;;4.2;3.1;;;;;;;11.8;88.5498;926.3934;;;;
2022/11/16 10:02:46;;;;;;;4;3.1;;;;;;;11.81;88.03711;926.4738;;;;
2022/11/16 10:05:12;;;;;;;4.4;3.5;;;;;;;11.78;88.3291;926.435;;;;
2022/11/16 10:07:37;;;;;;;4.7;3.9;;;;;;;11.79;89.32715;926.5378;;;;
2022/11/16 10:10:02;;;;;;;6.3;3.7;;;;;;;11.82;89.36719;926.3591;;;;
2022/11/16 10:12:30;;;;;;;4.5;3.2;;;;;;;11.86;89.73145;926.4016;;;;
2022/11/16 10:15:00;;;;;;;6.4;3.5;;;;;;;11.95;88.71875;926.3819;;;;
2022/11/16 10:17:25;;;;;;;3.8;3;;;;;;;11.99;88.58887;926.3908;;;;
2022/11/16 10:19:50;;;;;;;5.7;3.2;;;;;;;11.96;87.87305;926.3561;;;;
2022/11/16 10:22:15;;;;;;;3.9;2.9;;;;;;;11.95;88.60449;926.3419;;;;
2022/11/16 10:24:40;;;;;;;5.4;2.7;;;;;;;11.96;89.03027;926.3378;;;;
2022/11/16 10:27:09;;;;;;;2.6;2;;;;;;;11.93;88.34863;926.3135;;;;
2022/11/16 10:29:36;;;;;;;3.1;2.2;;;;;;;11.93;88.48633;926.2761;;;;
2022/11/16 10:32:03;;;;;;;2.7;1.8;;;;;;;11.86;86.69629;926.2531;;;;
2022/11/16 10:34:28;;;;;;;1.8;1.7;;;;;;;11.74;87.16504;926.2216;;;;
2022/11/16 10:36:53;;;;;;;2.2;1.6;;;;;;;11.71;87.04297;926.2062;;;;
2022/11/16 10:39:22;;;;;;;2.8;2.1;;;;;;;11.75;87.54492;926.231;;;;
2022/11/16 10:41:47;;;;;;;2.8;2.4;;;;;;;11.79;88.27539;926.2068;;;;
2022/11/16 10:44:12;;;;;;;2.7;2.4;;;;;;;11.83;87.81348;926.1986;;;;
2022/11/16 10:46:37;;;;;;;3.3;2.5;;;;;;;11.74;86.12305;926.1674;;;;
2022/11/16 10:49:02;;;;;;;2.9;2.4;;;;;;;11.74;86.84277;926.13;;;;
2022/11/16 10:51:27;;;;;;;3.7;2.9;;;;;;;11.8;87.58789;926.0528;;;;
2022/11/16 10:53:54;;;;;;;5.4;3.1;;;;;;;11.81;87.50977;926.1069;;;;
2022/11/16 10:56:19;;;;;;;4.3;3.2;;;;;;;11.93;87.3291;926.0558;;;;
2022/11/16 10:58:44;;;;;;;4.6;3;;;;;;;11.92;87.59082;926.0823;;;;
2022/11/16 11:01:09;;;;;;;2.9;2.5;;;;;;;11.8;87.77148;926.1301;;;;
2022/11/16 11:03:36;;;;;;;3;2.2;;;;;;;11.76;86.85938;926.1272;;;;
2022/11/16 11:06:01;;;;;;;5.2;2.5;;;;;;;11.7;86.82422;926.1353;;;;
2022/11/16 11:08:29;;;;;;;3.4;1.9;;;;;;;11.74;86.95898;926.098;;;;
2022/11/16 11:10:53;;;;;;;3;2.3;;;;;;;11.69;87.21191;926.1163;;;;
2022/11/16 11:13:18;;;;;;;3;2.2;;;;;;;11.66;87.89258;926.1367;;;;
2022/11/16 11:15:50;;;;;;;6.3;4.6;;;;;;;11.71;88.16699;926.1016;;;;
2022/11/16 11:18:14;;;;;;;4.2;3.2;;;;;;;11.76;88.10742;926.0714;;;;
2022/11/16 11:21:54;;;;;;;5.8;2.9;;;;;;;11.83;87.66406;926.0917;;;;
2022/11/16 11:24:14;;;;;;;5.1;3.4;;;;;;;11.78;87.95117;926.1113;;;;
2022/11/16 11:26:39;;;;;;;4.7;3;;;;;;;11.72;88.15527;926.0887;;;;
2022/11/16 11:29:08;;;;;;;3.8;3;;;;;;;11.82;87.77734;926.048;;;;
2022/11/16 11:31:31;;;;;;;4;2.8;;;;;;;11.89;87.65234;926.0165;;;;
2022/11/16 11:34:00;;;;;;;3.8;2.9;;;;;;;11.91;88.06836;925.9885;;;;
2022/11/16 11:36:58;;;;;;;3.6;2.6;;;;;;;11.93;87.99316;926.0471;;;;
2022/11/16 11:39:23;;;;;;;4;3;;;;;;;12.01;87.74707;925.9751;;;;
2022/11/16 11:41:50;;;;;;;3.6;2.9;;;;;;;12.12;87.01172;925.9637;;;;
2022/11/16 11:44:19;;;;;;;5.3;3.1;;;;;;;12.23;86.19727;925.971;;;;
2022/11/16 11:46:54;;;;;;;4;3;;;;;;;12.3;86.62207;925.9738;;;;
2022/11/16 11:49:22;;;;;;;2.8;2.5;;;;;;;12.41;86.35938;925.9584;;;;
2022/11/16 11:51:47;;;;;;;4.8;3;;;;;;;12.34;86.03516;925.8741;;;;
2022/11/16 11:54:12;;;;;;;4.1;3.3;;;;;;;12.22;86.06934;925.9256;;;;
2022/11/16 11:56:38;;;;;;;4.7;3.5;;;;;;;12.2;86.01953;926.0231;;;;
2022/11/16 11:59:06;;;;;;;5;3.5;;;;;;;12.29;86.72363;925.9733;;;;
2022/11/16 12:01:31;;;;;;;3.9;3.4;;;;;;;12.18;87.45898;926.037;;;;
2022/11/16 12:03:59;;;;;;;3.6;3.1;;;;;;;11.88;86.23047;926.0072;;;;
2022/11/16 12:06:26;;;;;;;7.1;4;;;;;;;12;88.2373;926.0228;;;;
2022/11/16 12:08:51;;;;;;;7.1;5.3;;;;;;;12.2;88.20898;926.0247;;;;
2022/11/16 12:11:56;;;;;;;5.3;4;;;;;;;12.22;87.30566;926.0087;;;;
2022/11/16 12:14:21;;;;;;;4.4;3.8;;;;;;;12.18;88.20508;926.1032;;;;
2022/11/16 12:16:48;;;;;;;7.6;5.2;;;;;;;11.98;88.65723;926.0303;;;;
2022/11/16 12:19:15;;;;;;;7.7;5;;;;;;;11.83;89.74707;926.0765;;;;
2022/11/16 12:21:40;;;;;;;6.6;5.1;;;;;;;11.73;90.11719;926.0263;;;;
2022/11/16 12:24:10;;;;;;;7.9;5.4;;;;;;;11.6;91.22266;926.0161;;;;
2022/11/16 12:26:38;;;;;;;7.1;5;;;;;;;11.58;91.87109;926.022;;;;
2022/11/16 12:29:05;;;;;;;7.7;4.9;;;;;;;11.64;91.85938;926.0103;;;;
2022/11/16 12:31:30;;;;;;;7.1;4.8;;;;;;;11.75;91.60938;926.0031;;;;
2022/11/16 12:33:55;;;;;;;6.9;4.8;;;;;;;11.89;91.36328;926.0278;;;;
2022/11/16 12:36:20;;;;;;;6.3;4.9;;;;;;;11.93;91.09766;926.0208;;;;
2022/11/16 12:38:48;;;;;;;6.9;4.6;;;;;;;11.85;91.48145;926.0253;;;;
2022/11/16 12:41:15;;;;;;;5.1;4;;;;;;;11.95;90.43555;925.959;;;;
2022/11/16 12:44:03;;;;;;;5;3.7;;;;;;;11.93;89.8584;926.0105;;;;
2022/11/16 12:46:28;;;;;;;4.7;3.8;;;;;;;11.67;90.99902;926.0416;;;;
2022/11/16 12:48:53;;;;;;;7;5.2;;;;;;;11.63;91.125;926.0072;;;;
2022/11/16 12:51:19;;;;;;;5.9;4.3;;;;;;;11.5;92.13965;925.9465;;;;
2022/11/16 12:53:44;;;;;;;5.6;4.2;;;;;;;11.39;93.34082;925.9773;;;;
2022/11/16 12:56:09;;;;;;;6.1;4.6;;;;;;;11.38;93.69336;926.0012;;;;
2022/11/16 12:58:34;;;;;;;12.4;8.7;;;;;;;11.37;93.97754;925.9832;;;;
2022/11/16 13:01:01;;;;;;;11.4;7.2;;;;;;;11.32;94.42285;925.9758;;;;
2022/11/16 13:03:30;;;;;;;12;7.6;;;;;;;11.37;94.71875;925.9075;;;;
2022/11/16 13:05:55;;;;;;;9.5;7.6;;;;;;;11.53;94.39941;925.8536;;;;
2022/11/16 13:08:20;;;;;;;7.2;5.5;;;;;;;11.54;93.81836;925.8583;;;;
2022/11/16 13:10:45;;;;;;;5.4;3.8;;;;;;;11.46;93.8125;925.8045;;;;
2022/11/16 13:13:11;;;;;;;5.5;3.9;;;;;;;11.57;94.2627;925.8442;;;;
2022/11/16 13:15:37;;;;;;;3.9;3.1;;;;;;;11.62;93.40234;925.8742;;;;
2022/11/16 13:18:02;;;;;;;4.1;2.8;;;;;;;11.66;93.16992;925.8392;;;;
2022/11/16 13:20:31;;;;;;;3.4;2.5;;;;;;;11.59;92.25;925.8688;;;;
2022/11/16 13:22:56;;;;;;;3.2;2.7;;;;;;;11.47;92.05371;925.8856;;;;
2022/11/16 13:25:21;;;;;;;4.4;3.1;;;;;;;11.6;92.9043;925.8582;;;;
2022/11/16 13:27:46;;;;;;;6;2.8;;;;;;;11.78;90.91699;925.8488;;;;
2022/11/16 13:30:11;;;;;;;5.7;2.4;;;;;;;11.96;89.96973;925.8416;;;;
2022/11/16 13:32:36;;;;;;;3.4;2.7;;;;;;;12.14;89.50293;925.7982;;;;
2022/11/16 13:35:02;;;;;;;11.9;7.7;;;;;;;12.3;88.42383;925.7567;;;;
2022/11/16 13:37:27;;;;;;;11.1;7;;;;;;;12.45;86.25195;925.6953;;;;
2022/11/16 13:39:52;;;;;;;5.2;3.3;;;;;;;12.58;85.22168;925.7615;;;;
2022/11/16 13:42:21;;;;;;;4.5;4.1;;;;;;;12.67;85.12402;925.7778;;;;
2022/11/16 13:44:46;;;;;;;4.1;3.1;;;;;;;12.7;84.98242;925.7461;;;;
2022/11/16 13:47:11;;;;;;;5.9;3.7;;;;;;;12.68;84.88672;925.7025;;;;
2022/11/16 13:49:37;;;;;;;5.2;3.7;;;;;;;;;;;;;
2022/11/16 13:52:02;;;;;;;5.5;4.2;;;;;;;;;;;;;
2022/11/16 13:54:27;;;;;;;8.2;3.7;;;;;;;;;;;;;
2022/11/16 13:56:53;;;;;;;11.6;6.5;;;;;;;;;;;;;
2022/11/16 13:59:18;;;;;;;6.3;3.6;;;;;;;;;;;;;
2022/11/16 14:01:43;;;;;;;5.3;3.8;;;;;;;;;;;;;
2022/11/16 14:04:08;;;;;;;4.9;3.7;;;;;;;;;;;;;
2022/11/16 14:06:33;;;;;;;10.4;7.4;;;;;;;;;;;;;
2022/11/16 14:08:59;;;;;;;6.3;4.7;;;;;;;;;;;;;
2022/11/16 14:11:24;;;;;;;4.6;4.1;;;;;;;;;;;;;
2022/11/16 14:13:49;;;;;;;6;4.1;;;;;;;;;;;;;
2022/11/16 14:16:15;;;;;;;4.5;4;;;;;;;;;;;;;
2022/11/16 14:18:40;;;;;;;11.3;7.7;;;;;;;;;;;;;
2022/11/16 14:21:06;;;;;;;12.3;8.2;;;;;;;;;;;;;
2022/11/16 14:23:31;;;;;;;5.8;3.8;;;;;;;;;;;;;
2022/11/16 14:25:56;;;;;;;12.4;7.2;;;;;;;;;;;;;
2022/11/16 14:28:21;;;;;;;9.8;5.3;;;;;;;;;;;;;
2022/11/16 14:30:46;;;;;;;8.9;5.7;;;;;;;;;;;;;
2022/11/16 14:33:11;;;;;;;11.7;6.5;;;;;;;;;;;;;
2022/11/16 14:35:37;;;;;;;8.6;4.1;;;;;;;;;;;;;
2022/11/16 14:38:02;;;;;;;4.9;3.6;;;;;;;;;;;;;
2022/11/16 14:40:27;;;;;;;22.7;11.1;;;;;;;;;;;;;
2022/11/16 14:42:52;;;;;;;12.6;6.9;;;;;;;;;;;;;
2022/11/16 14:45:18;;;;;;;24.3;12.2;;;;;;;;;;;;;
2022/11/16 14:47:43;;;;;;;6.4;4.2;;;;;;;;;;;;;
2022/11/16 14:50:08;;;;;;;5.3;3.4;;;;;;;;;;;;;
2022/11/16 14:52:33;;;;;;;6.8;4.3;;;;;;;;;;;;;
2022/11/16 14:55:00;;;;;;;6.2;4.6;;;;;;;;;;;;;
2022/11/16 14:57:26;;;;;;;4.6;4.1;;;;;;;;;;;;;
2022/11/16 14:59:52;;;;;;;5.9;4.6;;;;;;;;;;;;;
2022/11/16 15:02:17;;;;;;;7.5;5.9;;;;;;;;;;;;;
2022/11/16 15:04:42;;;;;;;6;4.5;;;;;;;;;;;;;
2022/11/16 15:07:07;;;;;;;5.1;3.8;;;;;;;;;;;;;
2022/11/16 15:09:34;;;;;;;10.1;6.2;;;;;;;;;;;;;
2022/11/16 15:14:24;;;;;;;14.2;8.6;;;;;;;;;;;;;
2022/11/16 15:16:49;;;;;;;16.1;9.6;;;;;;;;;;;;;
2022/11/16 15:19:14;;;;;;;11;8.1;;;;;;;;;;;;;
2022/11/16 15:21:39;;;;;;;10.1;6.1;;;;;;;;;;;;;
2022/11/16 15:24:05;;;;;;;5.3;3.6;;;;;;;;;;;;;
2022/11/16 15:26:30;;;;;;;6.3;4;;;;;;;;;;;;;
2022/11/16 15:28:56;;;;;;;6.9;5.2;;;;;;;;;;;;;
2022/11/16 15:31:21;;;;;;;6.3;4.6;;;;;;;;;;;;;
2022/11/16 15:33:49;;;;;;;5.9;3.9;;;;;;;;;;;;;
2022/11/16 15:36:13;;;;;;;5.9;4.1;;;;;;;;;;;;;
2022/11/16 15:38:38;;;;;;;4.8;2.5;;;;;;;;;;;;;
2022/11/16 15:41:04;;;;;;;4;3.4;;;;;;;;;;;;;
2022/11/16 15:43:29;;;;;;;4.2;3.2;;;;;;;;;;;;;
2022/11/16 15:45:55;;;;;;;3.6;2.8;;;;;;;;;;;;;
2022/11/16 15:48:20;;;;;;;3.2;2.4;;;;;;;;;;;;;
2022/11/16 15:50:47;;;;;;;2.5;2.2;;;;;;;;;;;;;
2022/11/16 15:53:12;;;;;;;3.1;2.3;;;;;;;;;;;;;
2022/11/16 15:55:38;;;;;;;5.2;3.6;;;;;;;;;;;;;
2022/11/16 15:58:03;;;;;;;5.3;4;;;;;;;;;;;;;